sensor_id;sensor_type;location;lat;lon;timestamp;temperature;humidity
16140;DHT22;8175;49.326;12.690;2023-05-24T00:01:16;11.20;99.90
16140;DHT22;8175;49.326;12.690;2023-05-24T00:03:50;11.30;99.90
16140;DHT22;8175;49.326;12.690;2023-05-24T00:06:19;11.20;99.90
16140;DHT22;8175;49.326;12.690;2023-05-24T00:08:45;11.20;99.90
16140;DHT22;8175;49.326;12.690;2023-05-24T00:11:11;11.10;99.90
16140;DHT22;8175;49.326;12.690;2023-05-24T00:13:37;11.10;99.90
16140;DHT22;8175;49.326;12.690;2023-05-24T00:16:03;11.10;99.90
16140;DHT22;8175;49.326;12.690;2023-05-24T00:18:29;11.10;99.90
16140;DHT22;8175;49.326;12.690;2023-05-24T00:20:57;11.00;99.90
16140;DHT22;8175;49.326;12.690;2023-05-24T00:23:26;11.00;99.90
16140;DHT22;8175;49.326;12.690;2023-05-24T00:25:52;11.00;99.90
16140;DHT22;8175;49.326;12.690;2023-05-24T00:28:18;11.00;99.90
16140;DHT22;8175;49.326;12.690;2023-05-24T00:30:43;11.00;99.90
16140;DHT22;8175;49.326;12.690;2023-05-24T00:33:09;10.90;99.90
16140;DHT22;8175;49.326;12.690;2023-05-24T00:35:35;10.90;99.90
16140;DHT22;8175;49.326;12.690;2023-05-24T00:38:01;10.90;99.90
16140;DHT22;8175;49.326;12.690;2023-05-24T00:40:26;10.90;99.90
16140;DHT22;8175;49.326;12.690;2023-05-24T00:42:52;10.90;99.90
16140;DHT22;8175;49.326;12.690;2023-05-24T00:45:18;10.90;99.90
16140;DHT22;8175;49.326;12.690;2023-05-24T00:47:44;10.90;99.90
16140;DHT22;8175;49.326;12.690;2023-05-24T00:50:10;10.90;99.90
16140;DHT22;8175;49.326;12.690;2023-05-24T00:52:39;10.90;99.90
16140;DHT22;8175;49.326;12.690;2023-05-24T00:55:06;10.90;99.90
16140;DHT22;8175;49.326;12.690;2023-05-24T00:57:32;10.90;99.90
16140;DHT22;8175;49.326;12.690;2023-05-24T00:59:59;10.90;99.90
16140;DHT22;8175;49.326;12.690;2023-05-24T01:02:25;10.90;99.90
16140;DHT22;8175;49.326;12.690;2023-05-24T01:04:51;10.90;99.90
16140;DHT22;8175;49.326;12.690;2023-05-24T01:10:05;10.80;99.90
16140;DHT22;8175;49.326;12.690;2023-05-24T01:17:52;10.70;99.90
16140;DHT22;8175;49.326;12.690;2023-05-24T01:20:22;10.60;99.90
16140;DHT22;8175;49.326;12.690;2023-05-24T01:28:20;10.40;99.90
16140;DHT22;8175;49.326;12.690;2023-05-24T01:30:46;10.40;99.90
16140;DHT22;8175;49.326;12.690;2023-05-24T01:33:12;10.40;99.90
16140;DHT22;8175;49.326;12.690;2023-05-24T01:35:38;10.40;99.90
16140;DHT22;8175;49.326;12.690;2023-05-24T01:38:07;10.40;99.90
16140;DHT22;8175;49.326;12.690;2023-05-24T01:40:34;10.40;99.90
16140;DHT22;8175;49.326;12.690;2023-05-24T01:43:26;10.40;99.90
16140;DHT22;8175;49.326;12.690;2023-05-24T01:45:59;10.40;99.90
16140;DHT22;8175;49.326;12.690;2023-05-24T01:51:23;10.40;99.90
16140;DHT22;8175;49.326;12.690;2023-05-24T01:53:51;10.40;99.90
16140;DHT22;8175;49.326;12.690;2023-05-24T01:56:18;10.40;99.90
16140;DHT22;8175;49.326;12.690;2023-05-24T01:58:45;10.30;99.90
16140;DHT22;8175;49.326;12.690;2023-05-24T02:01:12;10.30;99.90
16140;DHT22;8175;49.326;12.690;2023-05-24T02:03:39;10.30;99.90
16140;DHT22;8175;49.326;12.690;2023-05-24T02:06:05;10.20;99.90
16140;DHT22;8175;49.326;12.690;2023-05-24T02:08:31;10.20;99.90
16140;DHT22;8175;49.326;12.690;2023-05-24T04:24:28;9.40;99.90
16140;DHT22;8175;49.326;12.690;2023-05-24T04:26:54;9.50;99.90
16140;DHT22;8175;49.326;12.690;2023-05-24T04:29:19;9.50;99.90
16140;DHT22;8175;49.326;12.690;2023-05-24T04:31:45;9.60;99.90
16140;DHT22;8175;49.326;12.690;2023-05-24T04:34:13;9.60;99.90
16140;DHT22;8175;49.326;12.690;2023-05-24T04:36:38;9.70;99.90
16140;DHT22;8175;49.326;12.690;2023-05-24T04:39:05;9.70;99.90
16140;DHT22;8175;49.326;12.690;2023-05-24T04:41:31;9.80;99.90
16140;DHT22;8175;49.326;12.690;2023-05-24T04:43:59;9.90;99.90
16140;DHT22;8175;49.326;12.690;2023-05-24T04:46:25;10.00;99.90
16140;DHT22;8175;49.326;12.690;2023-05-24T04:48:52;10.10;99.90
16140;DHT22;8175;49.326;12.690;2023-05-24T04:51:18;10.10;99.90
16140;DHT22;8175;49.326;12.690;2023-05-24T04:53:44;10.20;99.90
16140;DHT22;8175;49.326;12.690;2023-05-24T04:56:09;10.20;99.90
16140;DHT22;8175;49.326;12.690;2023-05-24T04:58:39;10.20;99.90
16140;DHT22;8175;49.326;12.690;2023-05-24T05:01:05;10.40;99.90
16140;DHT22;8175;49.326;12.690;2023-05-24T05:03:30;10.60;99.90
16140;DHT22;8175;49.326;12.690;2023-05-24T05:05:56;10.70;99.90
16140;DHT22;8175;49.326;12.690;2023-05-24T05:08:21;10.70;99.90
16140;DHT22;8175;49.326;12.690;2023-05-24T05:10:47;10.70;99.90
16140;DHT22;8175;49.326;12.690;2023-05-24T05:13:13;10.60;99.90
16140;DHT22;8175;49.326;12.690;2023-05-24T05:15:38;10.70;99.90
16140;DHT22;8175;49.326;12.690;2023-05-24T05:18:04;10.80;99.90
16140;DHT22;8175;49.326;12.690;2023-05-24T05:20:30;10.90;99.90
16140;DHT22;8175;49.326;12.690;2023-05-24T05:22:55;11.00;99.90
16140;DHT22;8175;49.326;12.690;2023-05-24T05:25:21;11.10;99.90
16140;DHT22;8175;49.326;12.690;2023-05-24T05:27:47;11.10;99.90
16140;DHT22;8175;49.326;12.690;2023-05-24T05:30:12;11.30;99.90
16140;DHT22;8175;49.326;12.690;2023-05-24T05:32:38;11.20;99.90
16140;DHT22;8175;49.326;12.690;2023-05-24T05:35:04;11.20;99.90
16140;DHT22;8175;49.326;12.690;2023-05-24T05:37:30;11.00;99.90
16140;DHT22;8175;49.326;12.690;2023-05-24T05:39:56;10.80;99.90
16140;DHT22;8175;49.326;12.690;2023-05-24T05:42:21;10.70;99.90
16140;DHT22;8175;49.326;12.690;2023-05-24T05:44:47;10.60;99.90
16140;DHT22;8175;49.326;12.690;2023-05-24T05:47:13;10.60;99.90
16140;DHT22;8175;49.326;12.690;2023-05-24T05:49:38;10.60;99.90
16140;DHT22;8175;49.326;12.690;2023-05-24T05:52:04;10.90;99.90
16140;DHT22;8175;49.326;12.690;2023-05-24T05:54:30;11.10;99.90
16140;DHT22;8175;49.326;12.690;2023-05-24T05:56:56;11.10;99.90
16140;DHT22;8175;49.326;12.690;2023-05-24T05:59:22;11.20;99.90
16140;DHT22;8175;49.326;12.690;2023-05-24T06:01:48;11.30;99.90
16140;DHT22;8175;49.326;12.690;2023-05-24T06:04:17;11.40;99.90
16140;DHT22;8175;49.326;12.690;2023-05-24T06:06:42;11.10;99.90
16140;DHT22;8175;49.326;12.690;2023-05-24T06:09:14;11.20;99.90
16140;DHT22;8175;49.326;12.690;2023-05-24T06:11:40;11.40;99.90
16140;DHT22;8175;49.326;12.690;2023-05-24T06:14:09;11.60;99.90
16140;DHT22;8175;49.326;12.690;2023-05-24T06:16:36;11.80;99.90
16140;DHT22;8175;49.326;12.690;2023-05-24T06:19:06;11.80;99.90
16140;DHT22;8175;49.326;12.690;2023-05-24T06:21:32;11.60;99.90
16140;DHT22;8175;49.326;12.690;2023-05-24T06:23:58;11.40;99.90
16140;DHT22;8175;49.326;12.690;2023-05-24T06:26:24;11.10;99.90
16140;DHT22;8175;49.326;12.690;2023-05-24T06:28:50;11.10;99.90
16140;DHT22;8175;49.326;12.690;2023-05-24T06:31:16;11.10;99.90
16140;DHT22;8175;49.326;12.690;2023-05-24T06:33:42;11.00;99.90
16140;DHT22;8175;49.326;12.690;2023-05-24T06:36:08;11.10;99.90
16140;DHT22;8175;49.326;12.690;2023-05-24T06:38:34;11.30;99.90
16140;DHT22;8175;49.326;12.690;2023-05-24T06:41:00;11.40;99.90
16140;DHT22;8175;49.326;12.690;2023-05-24T06:43:26;11.40;99.90
16140;DHT22;8175;49.326;12.690;2023-05-24T06:45:52;11.40;99.90
16140;DHT22;8175;49.326;12.690;2023-05-24T06:48:17;11.70;99.90
16140;DHT22;8175;49.326;12.690;2023-05-24T06:50:43;11.90;99.90
16140;DHT22;8175;49.326;12.690;2023-05-24T06:53:09;12.00;99.90
16140;DHT22;8175;49.326;12.690;2023-05-24T06:55:35;11.80;99.90
16140;DHT22;8175;49.326;12.690;2023-05-24T06:58:01;11.60;99.90
16140;DHT22;8175;49.326;12.690;2023-05-24T07:00:27;11.30;99.90
16140;DHT22;8175;49.326;12.690;2023-05-24T07:02:53;11.10;99.90
16140;DHT22;8175;49.326;12.690;2023-05-24T07:05:19;11.00;99.90
16140;DHT22;8175;49.326;12.690;2023-05-24T07:07:44;11.00;99.90
16140;DHT22;8175;49.326;12.690;2023-05-24T07:10:10;11.10;99.90
16140;DHT22;8175;49.326;12.690;2023-05-24T07:12:36;11.10;99.90
16140;DHT22;8175;49.326;12.690;2023-05-24T07:15:06;11.20;99.90
16140;DHT22;8175;49.326;12.690;2023-05-24T07:17:33;11.20;99.90
16140;DHT22;8175;49.326;12.690;2023-05-24T07:19:59;11.20;99.90
16140;DHT22;8175;49.326;12.690;2023-05-24T07:22:25;11.30;99.90
16140;DHT22;8175;49.326;12.690;2023-05-24T07:24:53;11.30;99.90
16140;DHT22;8175;49.326;12.690;2023-05-24T07:27:19;11.30;99.90
16140;DHT22;8175;49.326;12.690;2023-05-24T07:29:44;11.40;99.90
16140;DHT22;8175;49.326;12.690;2023-05-24T07:32:10;11.70;99.90
16140;DHT22;8175;49.326;12.690;2023-05-24T07:34:36;12.00;99.90
16140;DHT22;8175;49.326;12.690;2023-05-24T07:37:04;12.20;99.90
16140;DHT22;8175;49.326;12.690;2023-05-24T07:39:29;12.50;99.90
16140;DHT22;8175;49.326;12.690;2023-05-24T07:41:55;12.40;99.90
16140;DHT22;8175;49.326;12.690;2023-05-24T07:44:21;12.30;99.90
16140;DHT22;8175;49.326;12.690;2023-05-24T07:46:48;11.90;99.90
16140;DHT22;8175;49.326;12.690;2023-05-24T07:49:13;11.90;99.90
16140;DHT22;8175;49.326;12.690;2023-05-24T07:51:39;12.10;99.90
16140;DHT22;8175;49.326;12.690;2023-05-24T07:54:05;12.20;99.90
16140;DHT22;8175;49.326;12.690;2023-05-24T07:56:30;12.60;99.90
16140;DHT22;8175;49.326;12.690;2023-05-24T07:58:59;12.90;99.90
16140;DHT22;8175;49.326;12.690;2023-05-24T08:01:33;12.80;99.90
16140;DHT22;8175;49.326;12.690;2023-05-24T08:04:00;12.90;99.90
16140;DHT22;8175;49.326;12.690;2023-05-24T08:06:28;12.90;99.90
16140;DHT22;8175;49.326;12.690;2023-05-24T08:08:54;12.80;99.90
16140;DHT22;8175;49.326;12.690;2023-05-24T08:11:19;12.50;99.90
16140;DHT22;8175;49.326;12.690;2023-05-24T08:13:46;12.20;99.90
16140;DHT22;8175;49.326;12.690;2023-05-24T08:16:12;12.50;99.90
16140;DHT22;8175;49.326;12.690;2023-05-24T08:18:37;12.50;99.90
16140;DHT22;8175;49.326;12.690;2023-05-24T08:21:03;12.40;99.90
16140;DHT22;8175;49.326;12.690;2023-05-24T08:23:29;12.50;99.90
16140;DHT22;8175;49.326;12.690;2023-05-24T08:25:56;12.50;99.90
16140;DHT22;8175;49.326;12.690;2023-05-24T08:28:22;12.50;99.90
16140;DHT22;8175;49.326;12.690;2023-05-24T08:30:48;12.30;99.90
16140;DHT22;8175;49.326;12.690;2023-05-24T08:33:13;12.50;99.90
16140;DHT22;8175;49.326;12.690;2023-05-24T08:35:39;12.40;99.90
16140;DHT22;8175;49.326;12.690;2023-05-24T08:38:05;12.50;99.90
16140;DHT22;8175;49.326;12.690;2023-05-24T08:40:31;12.80;99.90
16140;DHT22;8175;49.326;12.690;2023-05-24T08:42:59;12.80;99.90
16140;DHT22;8175;49.326;12.690;2023-05-24T08:45:29;12.50;99.90
16140;DHT22;8175;49.326;12.690;2023-05-24T08:47:56;12.20;99.90
16140;DHT22;8175;49.326;12.690;2023-05-24T08:50:22;11.80;99.90
16140;DHT22;8175;49.326;12.690;2023-05-24T08:52:48;11.40;99.90
16140;DHT22;8175;49.326;12.690;2023-05-24T08:55:16;10.90;99.90
16140;DHT22;8175;49.326;12.690;2023-05-24T08:57:43;10.60;99.90
16140;DHT22;8175;49.326;12.690;2023-05-24T09:00:10;10.60;99.90
16140;DHT22;8175;49.326;12.690;2023-05-24T09:02:41;10.50;99.90
16140;DHT22;8175;49.326;12.690;2023-05-24T09:05:11;10.50;99.90
16140;DHT22;8175;49.326;12.690;2023-05-24T09:07:39;10.60;99.90
16140;DHT22;8175;49.326;12.690;2023-05-24T09:10:07;10.30;99.90
16140;DHT22;8175;49.326;12.690;2023-05-24T09:12:37;10.40;99.90
16140;DHT22;8175;49.326;12.690;2023-05-24T09:15:04;10.40;99.90
16140;DHT22;8175;49.326;12.690;2023-05-24T09:17:31;10.50;99.90
16140;DHT22;8175;49.326;12.690;2023-05-24T09:19:57;10.60;99.90
16140;DHT22;8175;49.326;12.690;2023-05-24T09:22:27;10.40;99.90
16140;DHT22;8175;49.326;12.690;2023-05-24T09:24:59;10.50;99.90
16140;DHT22;8175;49.326;12.690;2023-05-24T09:27:26;10.70;99.90
16140;DHT22;8175;49.326;12.690;2023-05-24T09:29:52;10.80;99.90
16140;DHT22;8175;49.326;12.690;2023-05-24T09:32:19;10.90;99.90
16140;DHT22;8175;49.326;12.690;2023-05-24T09:34:47;10.90;99.90
16140;DHT22;8175;49.326;12.690;2023-05-24T09:39:44;10.80;99.90
16140;DHT22;8175;49.326;12.690;2023-05-24T09:42:15;10.80;99.90
16140;DHT22;8175;49.326;12.690;2023-05-24T09:44:46;10.70;99.90
16140;DHT22;8175;49.326;12.690;2023-05-24T09:47:12;10.80;99.90
16140;DHT22;8175;49.326;12.690;2023-05-24T09:49:38;10.80;99.90
16140;DHT22;8175;49.326;12.690;2023-05-24T09:52:05;10.90;99.90
16140;DHT22;8175;49.326;12.690;2023-05-24T09:54:31;10.90;99.90
16140;DHT22;8175;49.326;12.690;2023-05-24T09:57:01;10.90;99.90
16140;DHT22;8175;49.326;12.690;2023-05-24T09:59:32;11.00;99.90
16140;DHT22;8175;49.326;12.690;2023-05-24T10:02:08;11.10;99.90
16140;DHT22;8175;49.326;12.690;2023-05-24T10:04:35;11.20;99.90
16140;DHT22;8175;49.326;12.690;2023-05-24T10:07:01;11.30;99.90
16140;DHT22;8175;49.326;12.690;2023-05-24T10:09:30;11.40;99.90
16140;DHT22;8175;49.326;12.690;2023-05-24T10:12:06;11.40;99.90
16140;DHT22;8175;49.326;12.690;2023-05-24T10:14:36;11.40;99.90
16140;DHT22;8175;49.326;12.690;2023-05-24T10:17:03;11.50;99.90
16140;DHT22;8175;49.326;12.690;2023-05-24T10:19:35;11.60;99.90
16140;DHT22;8175;49.326;12.690;2023-05-24T10:22:06;11.90;99.90
16140;DHT22;8175;49.326;12.690;2023-05-24T10:24:38;12.00;99.90
16140;DHT22;8175;49.326;12.690;2023-05-24T10:27:08;11.90;99.90
16140;DHT22;8175;49.326;12.690;2023-05-24T10:32:30;11.60;99.90
16140;DHT22;8175;49.326;12.690;2023-05-24T10:35:02;11.70;99.90
16140;DHT22;8175;49.326;12.690;2023-05-24T10:37:29;11.60;99.90
16140;DHT22;8175;49.326;12.690;2023-05-24T10:39:57;11.60;99.90
16140;DHT22;8175;49.326;12.690;2023-05-24T10:42:23;11.90;99.90
16140;DHT22;8175;49.326;12.690;2023-05-24T10:44:48;11.80;99.90
16140;DHT22;8175;49.326;12.690;2023-05-24T10:47:14;12.20;99.90
16140;DHT22;8175;49.326;12.690;2023-05-24T10:49:51;12.50;99.90
16140;DHT22;8175;49.326;12.690;2023-05-24T10:52:19;12.80;99.90
16140;DHT22;8175;49.326;12.690;2023-05-24T10:57:29;12.90;99.90
16140;DHT22;8175;49.326;12.690;2023-05-24T10:59:57;13.20;99.90
16140;DHT22;8175;49.326;12.690;2023-05-24T11:02:26;13.70;99.90
16140;DHT22;8175;49.326;12.690;2023-05-24T11:04:52;14.40;99.90
16140;DHT22;8175;49.326;12.690;2023-05-24T11:07:18;15.00;99.90
16140;DHT22;8175;49.326;12.690;2023-05-24T11:09:46;15.70;99.90
16140;DHT22;8175;49.326;12.690;2023-05-24T11:12:18;16.20;99.90
16140;DHT22;8175;49.326;12.690;2023-05-24T11:14:49;16.10;99.90
16140;DHT22;8175;49.326;12.690;2023-05-24T11:17:15;17.30;99.90
16140;DHT22;8175;49.326;12.690;2023-05-24T11:19:53;16.40;99.90
16140;DHT22;8175;49.326;12.690;2023-05-24T11:22:23;16.40;99.90
16140;DHT22;8175;49.326;12.690;2023-05-24T11:24:51;15.50;99.90
16140;DHT22;8175;49.326;12.690;2023-05-24T11:27:17;14.80;99.90
16140;DHT22;8175;49.326;12.690;2023-05-24T11:29:45;14.50;99.90
16140;DHT22;8175;49.326;12.690;2023-05-24T11:32:16;14.60;99.90
16140;DHT22;8175;49.326;12.690;2023-05-24T11:34:42;14.20;99.90
16140;DHT22;8175;49.326;12.690;2023-05-24T11:37:10;14.20;99.90
16140;DHT22;8175;49.326;12.690;2023-05-24T11:39:36;14.40;99.90
16140;DHT22;8175;49.326;12.690;2023-05-24T11:42:06;14.80;99.90
16140;DHT22;8175;49.326;12.690;2023-05-24T11:44:33;14.50;99.90
16140;DHT22;8175;49.326;12.690;2023-05-24T11:47:00;14.30;99.90
16140;DHT22;8175;49.326;12.690;2023-05-24T11:49:27;14.70;99.90
16140;DHT22;8175;49.326;12.690;2023-05-24T11:51:57;15.00;99.90
16140;DHT22;8175;49.326;12.690;2023-05-24T11:54:31;15.60;99.90
16140;DHT22;8175;49.326;12.690;2023-05-24T11:56:59;15.70;99.90
16140;DHT22;8175;49.326;12.690;2023-05-24T11:59:27;15.70;99.90
16140;DHT22;8175;49.326;12.690;2023-05-24T12:01:58;15.50;99.90
16140;DHT22;8175;49.326;12.690;2023-05-24T12:04:27;15.90;99.90
16140;DHT22;8175;49.326;12.690;2023-05-24T12:06:53;16.10;99.90
16140;DHT22;8175;49.326;12.690;2023-05-24T12:09:20;15.90;99.90
16140;DHT22;8175;49.326;12.690;2023-05-24T12:11:47;15.80;99.90
16140;DHT22;8175;49.326;12.690;2023-05-24T12:14:16;16.60;99.90
16140;DHT22;8175;49.326;12.690;2023-05-24T12:16:43;17.00;99.90
16140;DHT22;8175;49.326;12.690;2023-05-24T12:19:19;16.80;99.90
16140;DHT22;8175;49.326;12.690;2023-05-24T12:21:46;16.70;99.90
16140;DHT22;8175;49.326;12.690;2023-05-24T12:24:14;16.80;99.90
16140;DHT22;8175;49.326;12.690;2023-05-24T12:26:42;16.90;99.90
16140;DHT22;8175;49.326;12.690;2023-05-24T12:29:11;17.50;99.90
16140;DHT22;8175;49.326;12.690;2023-05-24T12:31:46;18.10;99.90
16140;DHT22;8175;49.326;12.690;2023-05-24T12:34:19;18.60;99.90
16140;DHT22;8175;49.326;12.690;2023-05-24T12:36:45;18.80;99.90
16140;DHT22;8175;49.326;12.690;2023-05-24T12:39:22;19.50;99.90
16140;DHT22;8175;49.326;12.690;2023-05-24T12:41:53;18.40;99.90
16140;DHT22;8175;49.326;12.690;2023-05-24T12:44:26;18.60;99.90
16140;DHT22;8175;49.326;12.690;2023-05-24T12:46:56;18.80;99.90
16140;DHT22;8175;49.326;12.690;2023-05-24T12:49:22;19.60;99.90
16140;DHT22;8175;49.326;12.690;2023-05-24T12:51:48;19.50;99.90
16140;DHT22;8175;49.326;12.690;2023-05-24T12:54:16;18.60;99.90
16140;DHT22;8175;49.326;12.690;2023-05-24T12:56:42;17.70;99.90
16140;DHT22;8175;49.326;12.690;2023-05-24T12:59:08;17.50;99.90
16140;DHT22;8175;49.326;12.690;2023-05-24T13:01:34;17.60;99.90
16140;DHT22;8175;49.326;12.690;2023-05-24T13:04:00;17.90;99.90
16140;DHT22;8175;49.326;12.690;2023-05-24T13:06:25;18.00;99.90
16140;DHT22;8175;49.326;12.690;2023-05-24T13:08:51;17.60;99.90
16140;DHT22;8175;49.326;12.690;2023-05-24T13:11:17;17.80;99.90
16140;DHT22;8175;49.326;12.690;2023-05-24T13:13:42;18.50;99.90
16140;DHT22;8175;49.326;12.690;2023-05-24T13:16:10;18.50;99.90
16140;DHT22;8175;49.326;12.690;2023-05-24T13:18:36;18.30;99.90
16140;DHT22;8175;49.326;12.690;2023-05-24T13:21:03;18.60;99.90
16140;DHT22;8175;49.326;12.690;2023-05-24T13:23:31;18.50;99.90
16140;DHT22;8175;49.326;12.690;2023-05-24T13:25:57;17.90;99.90
16140;DHT22;8175;49.326;12.690;2023-05-24T13:28:23;18.50;99.90
16140;DHT22;8175;49.326;12.690;2023-05-24T13:30:48;19.20;99.90
16140;DHT22;8175;49.326;12.690;2023-05-24T13:33:14;19.60;99.90
16140;DHT22;8175;49.326;12.690;2023-05-24T13:35:40;20.40;99.90
16140;DHT22;8175;49.326;12.690;2023-05-24T13:38:06;19.70;99.90
16140;DHT22;8175;49.326;12.690;2023-05-24T13:40:33;19.30;99.90
16140;DHT22;8175;49.326;12.690;2023-05-24T13:42:59;19.70;99.90
16140;DHT22;8175;49.326;12.690;2023-05-24T13:45:24;19.70;99.90
16140;DHT22;8175;49.326;12.690;2023-05-24T13:47:51;19.30;99.90
16140;DHT22;8175;49.326;12.690;2023-05-24T13:50:18;19.40;99.90
16140;DHT22;8175;49.326;12.690;2023-05-24T13:52:45;20.20;99.90
16140;DHT22;8175;49.326;12.690;2023-05-24T13:55:10;19.60;99.90
16140;DHT22;8175;49.326;12.690;2023-05-24T13:57:36;19.30;99.90
16140;DHT22;8175;49.326;12.690;2023-05-24T14:00:02;19.40;99.90
16140;DHT22;8175;49.326;12.690;2023-05-24T14:02:28;19.20;99.90
16140;DHT22;8175;49.326;12.690;2023-05-24T14:04:54;18.60;99.90
16140;DHT22;8175;49.326;12.690;2023-05-24T14:07:20;19.30;99.90
16140;DHT22;8175;49.326;12.690;2023-05-24T14:09:46;19.50;99.90
16140;DHT22;8175;49.326;12.690;2023-05-24T14:12:12;19.80;99.90
16140;DHT22;8175;49.326;12.690;2023-05-24T14:14:38;19.60;99.90
16140;DHT22;8175;49.326;12.690;2023-05-24T14:17:04;18.70;99.90
16140;DHT22;8175;49.326;12.690;2023-05-24T14:19:30;19.20;99.90
16140;DHT22;8175;49.326;12.690;2023-05-24T14:21:55;20.20;99.90
16140;DHT22;8175;49.326;12.690;2023-05-24T14:24:21;19.30;99.90
16140;DHT22;8175;49.326;12.690;2023-05-24T14:26:48;19.20;99.90
16140;DHT22;8175;49.326;12.690;2023-05-24T14:29:13;19.70;99.90
16140;DHT22;8175;49.326;12.690;2023-05-24T14:31:39;20.50;99.90
16140;DHT22;8175;49.326;12.690;2023-05-24T14:34:08;19.40;99.90
16140;DHT22;8175;49.326;12.690;2023-05-24T14:36:36;19.90;99.90
16140;DHT22;8175;49.326;12.690;2023-05-24T14:39:04;19.70;99.90
16140;DHT22;8175;49.326;12.690;2023-05-24T14:41:31;19.00;99.90
16140;DHT22;8175;49.326;12.690;2023-05-24T14:43:57;18.60;99.90
16140;DHT22;8175;49.326;12.690;2023-05-24T14:46:23;18.60;99.90
16140;DHT22;8175;49.326;12.690;2023-05-24T14:48:48;19.10;99.90
16140;DHT22;8175;49.326;12.690;2023-05-24T14:51:14;18.70;99.90
16140;DHT22;8175;49.326;12.690;2023-05-24T14:53:40;18.80;99.90
16140;DHT22;8175;49.326;12.690;2023-05-24T14:56:05;18.90;99.90
16140;DHT22;8175;49.326;12.690;2023-05-24T14:58:33;18.70;99.90
16140;DHT22;8175;49.326;12.690;2023-05-24T15:00:59;19.80;99.90
16140;DHT22;8175;49.326;12.690;2023-05-24T15:03:24;19.60;99.90
16140;DHT22;8175;49.326;12.690;2023-05-24T15:05:50;19.40;99.90
16140;DHT22;8175;49.326;12.690;2023-05-24T15:08:16;19.20;99.90
16140;DHT22;8175;49.326;12.690;2023-05-24T15:10:42;19.40;99.90
16140;DHT22;8175;49.326;12.690;2023-05-24T15:13:09;19.30;99.90
16140;DHT22;8175;49.326;12.690;2023-05-24T15:15:35;19.20;99.90
16140;DHT22;8175;49.326;12.690;2023-05-24T15:18:01;19.80;99.90
16140;DHT22;8175;49.326;12.690;2023-05-24T15:20:26;20.60;99.90
16140;DHT22;8175;49.326;12.690;2023-05-24T15:22:52;20.20;99.90
16140;DHT22;8175;49.326;12.690;2023-05-24T15:25:18;20.00;99.90
16140;DHT22;8175;49.326;12.690;2023-05-24T15:27:43;19.90;99.90
16140;DHT22;8175;49.326;12.690;2023-05-24T15:30:09;19.70;99.90
16140;DHT22;8175;49.326;12.690;2023-05-24T15:32:35;19.50;99.80
16140;DHT22;8175;49.326;12.690;2023-05-24T15:35:00;19.00;99.90
16140;DHT22;8175;49.326;12.690;2023-05-24T15:37:26;18.70;99.90
16140;DHT22;8175;49.326;12.690;2023-05-24T15:39:52;18.80;99.90
16140;DHT22;8175;49.326;12.690;2023-05-24T15:42:18;18.50;99.90
16140;DHT22;8175;49.326;12.690;2023-05-24T15:44:46;18.30;99.90
16140;DHT22;8175;49.326;12.690;2023-05-24T15:47:11;18.80;99.90
16140;DHT22;8175;49.326;12.690;2023-05-24T15:49:37;19.00;99.90
16140;DHT22;8175;49.326;12.690;2023-05-24T15:52:04;18.60;99.90
16140;DHT22;8175;49.326;12.690;2023-05-24T15:54:30;18.30;99.90
16140;DHT22;8175;49.326;12.690;2023-05-24T15:56:56;18.30;99.90
16140;DHT22;8175;49.326;12.690;2023-05-24T15:59:22;18.30;99.90
16140;DHT22;8175;49.326;12.690;2023-05-24T16:01:47;18.30;99.90
16140;DHT22;8175;49.326;12.690;2023-05-24T16:04:13;18.40;99.90
16140;DHT22;8175;49.326;12.690;2023-05-24T16:06:39;18.40;99.90
16140;DHT22;8175;49.326;12.690;2023-05-24T16:09:05;18.60;99.90
16140;DHT22;8175;49.326;12.690;2023-05-24T16:11:31;18.70;99.90
16140;DHT22;8175;49.326;12.690;2023-05-24T16:13:57;18.70;99.90
16140;DHT22;8175;49.326;12.690;2023-05-24T16:16:24;18.50;99.90
16140;DHT22;8175;49.326;12.690;2023-05-24T16:18:50;18.90;99.90
16140;DHT22;8175;49.326;12.690;2023-05-24T16:21:16;19.20;99.90
16140;DHT22;8175;49.326;12.690;2023-05-24T16:23:42;19.90;99.90
16140;DHT22;8175;49.326;12.690;2023-05-24T16:26:07;19.50;99.60
16140;DHT22;8175;49.326;12.690;2023-05-24T16:28:33;19.70;99.90
16140;DHT22;8175;49.326;12.690;2023-05-24T16:30:59;19.50;97.40
16140;DHT22;8175;49.326;12.690;2023-05-24T16:33:27;20.30;99.90
16140;DHT22;8175;49.326;12.690;2023-05-24T16:35:52;20.50;99.90
16140;DHT22;8175;49.326;12.690;2023-05-24T16:38:24;20.40;97.70
16140;DHT22;8175;49.326;12.690;2023-05-24T16:40:51;19.70;98.00
16140;DHT22;8175;49.326;12.690;2023-05-24T16:43:17;19.50;96.80
16140;DHT22;8175;49.326;12.690;2023-05-24T16:45:43;20.00;96.40
16140;DHT22;8175;49.326;12.690;2023-05-24T16:48:09;19.00;98.30
16140;DHT22;8175;49.326;12.690;2023-05-24T16:50:35;19.30;99.10
16140;DHT22;8175;49.326;12.690;2023-05-24T16:53:01;19.20;99.90
16140;DHT22;8175;49.326;12.690;2023-05-24T16:55:27;18.80;99.30
16140;DHT22;8175;49.326;12.690;2023-05-24T16:57:52;18.80;99.90
16140;DHT22;8175;49.326;12.690;2023-05-24T17:00:18;18.80;99.90
16140;DHT22;8175;49.326;12.690;2023-05-24T17:02:44;18.70;98.90
16140;DHT22;8175;49.326;12.690;2023-05-24T17:05:10;18.50;98.90
16140;DHT22;8175;49.326;12.690;2023-05-24T17:07:36;18.20;99.90
16140;DHT22;8175;49.326;12.690;2023-05-24T17:10:02;18.40;99.90
16140;DHT22;8175;49.326;12.690;2023-05-24T17:12:27;17.70;99.30
16140;DHT22;8175;49.326;12.690;2023-05-24T17:14:54;17.70;99.90
16140;DHT22;8175;49.326;12.690;2023-05-24T17:17:20;17.50;99.50
16140;DHT22;8175;49.326;12.690;2023-05-24T17:19:46;17.40;99.90
16140;DHT22;8175;49.326;12.690;2023-05-24T17:22:11;17.20;99.90
16140;DHT22;8175;49.326;12.690;2023-05-24T17:24:37;17.40;99.90
16140;DHT22;8175;49.326;12.690;2023-05-24T17:27:03;17.30;99.90
16140;DHT22;8175;49.326;12.690;2023-05-24T17:29:31;17.40;99.90
16140;DHT22;8175;49.326;12.690;2023-05-24T17:31:56;16.70;99.90
16140;DHT22;8175;49.326;12.690;2023-05-24T17:34:22;16.70;99.90
16140;DHT22;8175;49.326;12.690;2023-05-24T17:36:48;16.50;99.90
16140;DHT22;8175;49.326;12.690;2023-05-24T17:39:13;16.30;99.90
16140;DHT22;8175;49.326;12.690;2023-05-24T17:41:42;15.90;99.90
16140;DHT22;8175;49.326;12.690;2023-05-24T17:44:09;15.70;99.90
16140;DHT22;8175;49.326;12.690;2023-05-24T17:46:34;15.60;99.90
16140;DHT22;8175;49.326;12.690;2023-05-24T17:49:01;15.50;99.90
16140;DHT22;8175;49.326;12.690;2023-05-24T17:51:26;15.20;99.90
16140;DHT22;8175;49.326;12.690;2023-05-24T17:53:52;15.20;99.90
16140;DHT22;8175;49.326;12.690;2023-05-24T17:56:17;15.00;99.90
16140;DHT22;8175;49.326;12.690;2023-05-24T17:58:43;14.80;99.90
16140;DHT22;8175;49.326;12.690;2023-05-24T18:01:10;14.70;99.90
16140;DHT22;8175;49.326;12.690;2023-05-24T18:03:37;14.30;99.90
16140;DHT22;8175;49.326;12.690;2023-05-24T18:06:03;14.30;99.90